Merritt Island, Florida
Current Conditions -  °F | °C
As of 6:04 PM on Tuesday 25 Nov 2014 (Local Time) from KCOF Reporting Station
Clear Clear  
Wind Chill: 24°   Ceiling: Unl
Heat Index: 24°   Visibility: 10mi
Dew Point: 23°   Wind: 9mph
Humidity: 94%   Direction: 210°SSW
Pressure: 29.9"   Gusts: NA
Location:  28.36°N, 80.68°W
Report Text: KCOF 252304Z AUTO 21008KT 10SM CLR 24/23 A2990 RMK AO2 LTG DSNT NW RAB2259
Loading
Personal Weather Stations






























Interactive Weather Map New forecast layout! Learn more

10-Day Weather Forecast

Advertisements
Track Severe Weather on mobile